This is the latest recevied weather packets stored in our database for station/object SP9KB-13. If no packets are shown the sender has not sent any weather packets the latest 1 day(s).
| Time | Temp. | Humidity | Pressure | Rain* | Wind** | Luminosity | Snow |
|---|---|---|---|---|---|---|---|
| 1778054323 | 20.56° C | 48% | 990.9 hPa | 0 mm | - | - | - |
| 1778054022 | 20° C | 48% | 990.9 hPa | 0 mm | - | - | - |
| 1778053722 | 19.44° C | 49% | 991 hPa | 0 mm | - | - | - |
| 1778053421 | 19.44° C | 48% | 991 hPa | 0 mm | - | - | - |
| 1778052820 | 20° C | 48% | 991 hPa | 0 mm | - | - | - |
| 1778052520 | 19.44° C | 48% | 990.9 hPa | 0 mm | - | - | - |
| 1778052219 | 19.44° C | 46% | 990.9 hPa | 0 mm | - | - | - |
| 1778051918 | 19.44° C | 48% | 991.2 hPa | 0 mm | - | - | - |
| 1778051618 | 19.44° C | 48% | 991 hPa | 0 mm | - | - | - |
| 1778050716 | 17.78° C | 52% | 991 hPa | 0 mm | - | - | - |
| 1778050115 | 16.11° C | 54% | 991.1 hPa | 0 mm | - | - | - |
| 1778049514 | 16.11° C | 55% | 991.1 hPa | 0 mm | - | - | - |
| 1778048913 | 16.11° C | 55% | 990.9 hPa | 0 mm | - | - | - |
| 1778048612 | 16.67° C | 55% | 990.8 hPa | 0 mm | - | - | - |
| 1778048312 | 16.11° C | 54% | 990.9 hPa | 0 mm | - | - | - |
| 1778048011 | 16.11° C | 54% | 990.8 hPa | 0 mm | - | - | - |
| 1778047711 | 16.11° C | 54% | 990.8 hPa | 0 mm | - | - | - |
| 1778047410 | 16.11° C | 53% | 990.9 hPa | 0 mm | - | - | - |
| 1778047109 | 16.11° C | 54% | 990.8 hPa | 0 mm | - | - | - |
| 1778046809 | 16.11° C | 55% | 990.9 hPa | 0 mm | - | - | - |
| 1778046508 | 16.11° C | 54% | 990.9 hPa | 0 mm | - | - | - |
| 1778046208 | 16.11° C | 54% | 990.7 hPa | 0 mm | - | - | - |
| 1778045907 | 15.56° C | 55% | 990.8 hPa | 0 mm | - | - | - |
| 1778045607 | 15.56° C | 54% | 990.8 hPa | 0 mm | - | - | - |
| 1778045306 | 15.56° C | 55% | 990.7 hPa | 0 mm | - | - | - |
* Rain latest hour (hover to see other rain measurements)
** Current wind speed in m/s (hover to see current wind gust speed)